Bay City, Michigan
Current Conditions -  °F | °C
As of 9:53 AM on Thursday 23 Oct 2014 (Local Time) from KMBS Reporting Station
Haze Haze  
Wind Chill: 37°   Ceiling: 1700
Heat Index: 37°   Visibility: 2mi
Dew Point: 35°   Wind: 3mph
Humidity: 93%   Direction: 250°WSW
Pressure: 30.26"   Gusts: NA
Location:  43.6°N, 83.88°W
Report Text: KMBS 231353Z 25003KT 2SM BR OVC017 03/02 A3026 RMK AO2 SFC VIS 6 SLP254 T00280017
Loading
Personal Weather Stations






























Interactive Weather Map New forecast layout! Learn more

10-Day Weather Forecast

Advertisements
Track Severe Weather on mobile